createdAt,value
2023-05-10T00:00:39.049Z,160.17
2023-05-10T00:01:38.059Z,158.72
2023-05-10T00:02:39.257Z,160.05
2023-05-10T00:03:39.152Z,159.64
2023-05-10T00:04:38.047Z,159.48
2023-05-10T00:05:39.075Z,160.15
2023-05-10T00:06:38.062Z,157.84
2023-05-10T00:07:38.049Z,157.69
2023-05-10T00:08:39.061Z,159.21
2023-05-10T00:09:38.067Z,158.79
2023-05-10T00:10:39.074Z,158.08
2023-05-10T00:11:38.824Z,158.95
2023-05-10T00:12:38.095Z,158.03
2023-05-10T00:13:39.128Z,160.92
2023-05-10T00:14:39.097Z,160.72
2023-05-10T00:15:39.074Z,158.30
2023-05-10T00:16:38.114Z,158.33
2023-05-10T00:17:38.143Z,159.59
2023-05-10T00:18:38.103Z,158.01
2023-05-10T00:19:38.098Z,158.00
2023-05-10T00:20:39.078Z,156.94
2023-05-10T00:21:39.091Z,158.82
2023-05-10T00:22:39.776Z,158.10
2023-05-10T00:23:39.110Z,158.28
2023-05-10T00:24:39.103Z,157.68
2023-05-10T00:25:38.105Z,156.72
2023-05-10T00:26:39.096Z,157.12
2023-05-10T00:27:39.124Z,157.38
2023-05-10T00:28:38.102Z,158.52
2023-05-10T00:29:39.100Z,157.84
2023-05-10T00:30:39.101Z,158.76
2023-05-10T00:31:38.140Z,158.47
2023-05-10T00:32:39.135Z,158.51
2023-05-10T00:33:39.125Z,155.54
2023-05-10T00:34:38.113Z,156.88
2023-05-10T00:35:38.108Z,157.17
2023-05-10T00:36:38.124Z,156.43
2023-05-10T00:37:39.131Z,156.99
2023-05-10T00:38:39.124Z,155.67
2023-05-10T00:39:39.119Z,155.10
2023-05-10T00:40:39.115Z,155.75
2023-05-10T00:41:39.133Z,156.78
2023-05-10T00:42:39.133Z,157.90
2023-05-10T00:43:39.170Z,157.43
2023-05-10T00:44:39.151Z,156.35
2023-05-10T00:45:39.260Z,157.50
2023-05-10T00:46:39.172Z,156.96
2023-05-10T00:47:39.226Z,155.68
2023-05-10T00:48:39.197Z,156.68
2023-05-10T00:49:38.200Z,156.07
2023-05-10T00:50:39.197Z,155.75
2023-05-10T00:51:39.191Z,157.70
2023-05-10T00:52:39.189Z,157.60
2023-05-10T00:53:39.233Z,156.22
2023-05-10T00:54:39.237Z,157.73
2023-05-10T00:55:39.213Z,156.61
2023-05-10T00:56:38.218Z,156.30
2023-05-10T00:57:39.251Z,155.74
2023-05-10T00:58:39.252Z,153.96
2023-05-10T00:59:39.279Z,155.66
2023-05-10T01:00:38.268Z,156.19
2023-05-10T01:01:39.308Z,156.98
2023-05-10T01:02:38.421Z,156.27
2023-05-10T01:03:38.416Z,155.66
2023-05-10T01:04:38.338Z,155.17
2023-05-10T01:05:38.338Z,156.04
2023-05-10T01:06:39.338Z,156.01
2023-05-10T01:07:39.350Z,155.59
2023-05-10T01:08:38.338Z,156.19
2023-05-10T01:09:39.363Z,155.16
2023-05-10T01:10:39.373Z,156.76
2023-05-10T01:11:39.365Z,154.90
2023-05-10T01:12:41.076Z,158.09
2023-05-10T01:13:39.382Z,156.75
2023-05-10T01:14:38.420Z,159.31
2023-05-10T01:15:39.565Z,157.41
2023-05-10T01:16:38.382Z,155.64
2023-05-10T01:17:39.359Z,154.41
2023-05-10T01:18:39.348Z,156.61
2023-05-10T01:19:39.337Z,156.39
2023-05-10T01:20:38.318Z,156.56
2023-05-10T01:21:38.316Z,155.70
2023-05-10T01:22:38.324Z,156.32
2023-05-10T01:23:39.308Z,155.52
2023-05-10T01:24:39.323Z,156.30
2023-05-10T01:25:39.309Z,155.53
2023-05-10T01:26:39.278Z,154.50
2023-05-10T01:27:39.598Z,153.07
2023-05-10T01:28:38.288Z,155.34
2023-05-10T01:29:38.302Z,154.02
2023-05-10T01:30:39.264Z,154.87
2023-05-10T01:31:39.392Z,154.96
2023-05-10T01:32:38.302Z,153.59
2023-05-10T01:33:39.223Z,153.70
2023-05-10T01:34:39.230Z,154.54
2023-05-10T01:35:39.217Z,152.47
2023-05-10T01:36:39.204Z,153.75
2023-05-10T01:37:39.215Z,155.87
2023-05-10T01:38:39.225Z,152.14
2023-05-10T01:39:38.203Z,155.74
2023-05-10T01:40:39.191Z,155.26
2023-05-10T01:41:38.177Z,153.85
2023-05-10T01:42:38.158Z,152.83
2023-05-10T01:43:39.178Z,154.10
2023-05-10T01:44:38.168Z,152.83
2023-05-10T01:45:39.153Z,153.77
2023-05-10T01:46:38.203Z,153.28
2023-05-10T01:47:39.187Z,155.85
2023-05-10T01:48:38.124Z,153.62
2023-05-10T01:49:38.115Z,153.48
2023-05-10T01:50:39.111Z,155.87
2023-05-10T01:51:39.105Z,153.55
2023-05-10T01:52:39.103Z,153.77
2023-05-10T01:53:38.110Z,152.94
2023-05-10T01:54:38.095Z,153.78
2023-05-10T01:55:39.078Z,153.48
2023-05-10T01:56:38.060Z,154.56
2023-05-10T01:57:39.053Z,153.05
2023-05-10T01:58:39.065Z,152.71
2023-05-10T01:59:39.079Z,153.68
2023-05-10T02:00:39.083Z,154.96
2023-05-10T02:01:38.066Z,152.83
2023-05-10T02:02:39.079Z,154.17
2023-05-10T02:03:39.119Z,153.61
2023-05-10T02:04:39.009Z,155.77
2023-05-10T02:05:39.016Z,151.18
2023-05-10T02:06:39.008Z,152.99
2023-05-10T02:07:38.990Z,152.35
2023-05-10T02:08:37.983Z,155.02
2023-05-10T02:09:38.976Z,152.69
2023-05-10T02:10:38.972Z,151.61
2023-05-10T02:11:38.973Z,153.37
2023-05-10T02:12:38.962Z,154.37
2023-05-10T02:13:38.960Z,152.83
2023-05-10T02:14:38.963Z,153.88
2023-05-10T02:15:38.963Z,154.80
2023-05-10T02:16:38.945Z,152.57
2023-05-10T02:17:39.031Z,153.54
2023-05-10T02:18:37.918Z,153.58
2023-05-10T02:19:37.955Z,153.21
2023-05-10T02:20:38.969Z,151.56
2023-05-10T02:21:39.017Z,153.07
2023-05-10T02:22:38.965Z,152.77
2023-05-10T02:23:38.980Z,153.55
2023-05-10T02:24:38.011Z,153.92
2023-05-10T02:25:39.015Z,152.43
2023-05-10T02:26:39.023Z,152.48
2023-05-10T02:27:39.073Z,152.47
2023-05-10T02:28:39.072Z,153.38
2023-05-10T02:29:38.094Z,154.08
2023-05-10T02:30:38.143Z,153.09
2023-05-10T02:31:39.174Z,152.73
2023-05-10T02:32:39.821Z,150.94
2023-05-10T02:33:38.171Z,153.42
2023-05-10T02:34:39.180Z,152.64
2023-05-10T02:35:39.255Z,151.24
2023-05-10T02:36:39.223Z,152.14
2023-05-10T02:37:39.260Z,152.46
2023-05-10T02:38:39.274Z,154.35
2023-05-10T02:39:38.276Z,151.18
2023-05-10T02:40:39.314Z,152.76
2023-05-10T02:41:38.333Z,150.90
2023-05-10T02:42:39.366Z,153.85
2023-05-10T02:43:39.383Z,153.47
2023-05-10T02:44:38.400Z,153.36
2023-05-10T02:45:39.427Z,150.90
2023-05-10T02:46:39.528Z,151.87
2023-05-10T02:47:38.507Z,151.31
2023-05-10T02:48:39.509Z,152.43
2023-05-10T02:49:38.518Z,151.65
2023-05-10T02:50:39.537Z,154.06
2023-05-10T02:51:38.577Z,153.73
2023-05-10T02:52:39.579Z,153.61
2023-05-10T02:53:38.609Z,152.66
2023-05-10T02:54:38.642Z,151.61
2023-05-10T02:55:38.671Z,153.56
2023-05-10T02:56:39.687Z,150.52
2023-05-10T02:57:38.697Z,152.69
2023-05-10T02:58:39.723Z,152.21
2023-05-10T02:59:39.745Z,150.95
2023-05-10T03:00:38.784Z,151.00
2023-05-10T03:01:39.827Z,151.06
2023-05-10T03:02:39.867Z,151.47
2023-05-10T03:03:39.844Z,151.48
2023-05-10T03:04:39.882Z,154.74
2023-05-10T03:05:39.880Z,153.76
2023-05-10T03:06:39.913Z,152.29
2023-05-10T03:07:39.980Z,152.67
2023-05-10T03:08:39.988Z,153.78
2023-05-10T03:09:39.982Z,150.83
2023-05-10T03:10:39.010Z,151.74
2023-05-10T03:11:40.036Z,150.76
2023-05-10T03:12:40.055Z,151.64
2023-05-10T03:13:40.120Z,151.20
2023-05-10T03:14:40.098Z,148.68
2023-05-10T03:15:40.176Z,149.95
2023-05-10T03:16:39.164Z,152.09
2023-05-10T03:17:40.239Z,149.47
2023-05-10T03:18:40.223Z,151.17
2023-05-10T03:19:40.256Z,151.15
2023-05-10T03:20:39.266Z,149.73
2023-05-10T03:21:39.293Z,150.25
2023-05-10T03:22:39.349Z,150.23
2023-05-10T03:23:40.364Z,151.09
2023-05-10T03:24:40.418Z,149.71
2023-05-10T03:25:39.382Z,149.70
2023-05-10T03:26:39.408Z,151.41
2023-05-10T03:27:40.440Z,148.86
2023-05-10T03:28:40.459Z,150.18
2023-05-10T03:29:40.481Z,149.72
2023-05-10T03:30:40.540Z,150.65
2023-05-10T03:31:40.571Z,150.27
2023-05-10T03:32:39.595Z,153.00
2023-05-10T03:33:40.590Z,150.66
2023-05-10T03:34:40.618Z,149.39
2023-05-10T03:35:39.659Z,150.56
2023-05-10T03:36:39.672Z,150.36
2023-05-10T03:37:39.693Z,149.24
2023-05-10T03:38:39.778Z,149.41
2023-05-10T03:39:40.800Z,150.16
2023-05-10T03:40:40.803Z,152.00
2023-05-10T03:41:40.820Z,148.30
2023-05-10T03:42:40.850Z,149.03
2023-05-10T03:43:40.891Z,149.68
2023-05-10T03:44:40.918Z,149.11
2023-05-10T03:45:40.942Z,150.46
2023-05-10T03:46:40.008Z,150.86
2023-05-10T03:47:41.019Z,147.87
2023-05-10T03:48:41.032Z,149.21
2023-05-10T03:49:41.051Z,150.31
2023-05-10T03:50:40.073Z,149.00
2023-05-10T03:51:40.089Z,148.81
2023-05-10T03:52:41.130Z,150.30
2023-05-10T03:53:41.140Z,149.31
2023-05-10T03:54:41.198Z,149.93
2023-05-10T03:55:41.228Z,148.76
2023-05-10T03:56:41.222Z,148.23
2023-05-10T03:57:41.251Z,148.43
2023-05-10T03:58:41.279Z,149.23
2023-05-10T03:59:41.318Z,150.45
2023-05-10T04:00:40.363Z,147.75
2023-05-10T04:01:40.414Z,148.28
2023-05-10T04:02:40.547Z,147.87
2023-05-10T04:03:41.608Z,149.40
2023-05-10T04:04:41.474Z,149.06
2023-05-10T04:05:41.519Z,148.25
2023-05-10T04:06:41.600Z,149.07
2023-05-10T04:07:40.568Z,147.06
2023-05-10T04:08:40.618Z,147.65
2023-05-10T04:09:41.638Z,147.20
2023-05-10T04:10:41.692Z,147.94
2023-05-10T04:11:40.731Z,148.76
2023-05-10T04:12:40.727Z,148.72
2023-05-10T04:13:41.778Z,146.34
2023-05-10T04:14:41.807Z,148.95
2023-05-10T04:15:41.864Z,149.85
2023-05-10T04:16:41.939Z,148.36
2023-05-10T04:17:41.920Z,149.27
2023-05-10T04:18:41.931Z,145.67
2023-05-10T04:19:41.956Z,148.19
2023-05-10T04:20:41.997Z,145.88
2023-05-10T04:21:41.031Z,146.13
2023-05-10T04:22:42.058Z,147.10
2023-05-10T04:23:42.117Z,146.90
2023-05-10T04:24:42.146Z,147.77
2023-05-10T04:25:42.175Z,147.70
2023-05-10T04:26:41.205Z,147.87
2023-05-10T04:27:42.279Z,146.14
2023-05-10T04:28:42.280Z,147.98
2023-05-10T04:29:42.320Z,146.66
2023-05-10T04:30:41.398Z,149.32
2023-05-10T04:31:42.382Z,146.95
2023-05-10T04:32:42.435Z,149.32
2023-05-10T04:33:41.488Z,146.18
2023-05-10T04:34:42.490Z,148.82
2023-05-10T04:35:42.541Z,146.41
2023-05-10T04:36:42.592Z,147.97
2023-05-10T04:37:42.613Z,149.41
2023-05-10T04:38:42.756Z,148.53
2023-05-10T04:39:42.693Z,146.06
2023-05-10T04:40:42.727Z,148.81
2023-05-10T04:41:42.786Z,148.81
2023-05-10T04:42:42.804Z,146.26
2023-05-10T04:43:42.861Z,146.38
2023-05-10T04:44:41.879Z,147.60
2023-05-10T04:45:42.931Z,149.18
2023-05-10T04:46:42.981Z,149.68
2023-05-10T04:47:42.998Z,147.69
2023-05-10T04:48:43.028Z,149.67
2023-05-10T04:49:43.074Z,146.85
2023-05-10T04:50:43.140Z,147.47
2023-05-10T04:51:43.139Z,146.75
2023-05-10T04:52:42.192Z,145.09
2023-05-10T04:53:48.511Z,148.23
2023-05-10T04:54:43.247Z,148.49
2023-05-10T04:55:43.264Z,149.13
2023-05-10T04:56:42.219Z,149.07
2023-05-10T04:57:43.196Z,149.60
2023-05-10T04:58:43.186Z,147.85
2023-05-10T04:59:42.205Z,151.41
2023-05-10T05:00:43.186Z,147.73
2023-05-10T05:01:43.216Z,148.97
2023-05-10T05:02:42.233Z,148.29
2023-05-10T05:03:43.270Z,148.63
2023-05-10T05:04:43.147Z,148.36
2023-05-10T05:05:43.141Z,146.27
2023-05-10T05:06:42.183Z,148.00
2023-05-10T05:07:43.129Z,145.63
2023-05-10T05:08:42.114Z,147.84
2023-05-10T05:09:43.119Z,148.59
2023-05-10T05:10:43.109Z,147.55
2023-05-10T05:11:43.120Z,147.71
2023-05-10T05:12:43.122Z,146.90
2023-05-10T05:13:42.085Z,149.61
2023-05-10T05:14:43.074Z,148.25
2023-05-10T05:15:42.093Z,149.08
2023-05-10T05:16:43.133Z,148.70
2023-05-10T05:17:43.257Z,150.00
2023-05-10T05:18:43.044Z,148.03
2023-05-10T05:19:43.040Z,147.99
2023-05-10T05:20:42.062Z,149.05
2023-05-10T05:21:42.028Z,150.80
2023-05-10T05:22:43.004Z,151.82
2023-05-10T05:23:43.017Z,150.69
2023-05-10T05:24:42.013Z,149.46
2023-05-10T05:25:43.049Z,150.18
2023-05-10T05:26:43.072Z,149.01
2023-05-10T05:27:43.145Z,148.01
2023-05-10T05:28:43.183Z,151.02
2023-05-10T05:29:42.241Z,151.78
2023-05-10T05:30:43.289Z,152.58
2023-05-10T05:31:43.456Z,150.04
2023-05-10T05:32:43.437Z,150.02
2023-05-10T05:33:43.392Z,149.76
2023-05-10T05:34:42.420Z,151.29
2023-05-10T05:35:43.486Z,150.60
2023-05-10T05:36:42.549Z,152.15
2023-05-10T05:37:43.551Z,153.47
2023-05-10T05:38:43.628Z,149.29
2023-05-10T05:39:42.639Z,153.16
2023-05-10T05:40:43.672Z,155.18
2023-05-10T05:41:43.746Z,158.36
2023-05-10T05:42:43.762Z,159.77
2023-05-10T05:43:42.784Z,161.42
2023-05-10T05:44:42.840Z,164.39
2023-05-10T05:45:43.903Z,167.91
2023-05-10T05:46:43.915Z,174.92
2023-05-10T05:47:43.921Z,177.17
2023-05-10T05:48:43.899Z,179.99
2023-05-10T05:49:42.918Z,176.49
2023-05-10T05:50:42.952Z,175.00
2023-05-10T05:51:43.971Z,171.32
2023-05-10T05:52:43.968Z,170.55
2023-05-10T05:53:43.960Z,173.61
2023-05-10T05:54:43.972Z,177.64
2023-05-10T05:55:43.065Z,180.98
2023-05-10T05:56:44.018Z,186.36
2023-05-10T05:57:43.046Z,197.69
2023-05-10T05:58:44.081Z,212.21
2023-05-10T05:59:44.164Z,222.85
2023-05-10T06:00:43.243Z,226.17
2023-05-10T06:01:44.378Z,232.54
2023-05-10T06:02:44.535Z,235.60
2023-05-10T06:03:44.412Z,240.75
2023-05-10T06:04:44.880Z,236.44
2023-05-10T06:05:43.441Z,237.58
2023-05-10T06:06:44.459Z,237.31
2023-05-10T06:07:44.507Z,246.99
2023-05-10T06:08:44.546Z,247.88
2023-05-10T06:09:43.664Z,244.59
2023-05-10T06:10:44.565Z,244.19
2023-05-10T06:11:44.598Z,243.86
2023-05-10T06:12:43.620Z,245.78
2023-05-10T06:13:44.619Z,247.79
2023-05-10T06:14:44.628Z,247.44
2023-05-10T06:15:44.662Z,249.27
2023-05-10T06:16:44.686Z,248.03
2023-05-10T06:17:43.678Z,249.74
2023-05-10T06:18:44.790Z,248.05
2023-05-10T06:19:44.718Z,250.00
2023-05-10T06:20:44.657Z,250.18
2023-05-10T06:21:44.684Z,246.56
2023-05-10T06:22:44.655Z,248.46
2023-05-10T06:23:44.664Z,248.23
2023-05-10T06:24:44.691Z,249.71
2023-05-10T06:25:43.733Z,248.63
2023-05-10T06:26:43.756Z,248.00
2023-05-10T06:27:44.703Z,248.46
2023-05-10T06:28:43.899Z,246.92
2023-05-10T06:29:44.920Z,245.89
2023-05-10T06:30:44.997Z,250.06
2023-05-10T06:31:45.048Z,250.23
2023-05-10T06:32:45.176Z,247.91
2023-05-10T06:33:45.152Z,250.07
2023-05-10T06:34:44.175Z,247.65
2023-05-10T06:35:44.254Z,247.98
2023-05-10T06:36:45.259Z,247.50
2023-05-10T06:37:45.326Z,248.94
2023-05-10T06:38:44.374Z,247.61
2023-05-10T06:39:45.447Z,248.57
2023-05-10T06:40:45.470Z,248.27
2023-05-10T06:41:45.536Z,250.00
2023-05-10T06:42:44.573Z,250.09
2023-05-10T06:43:45.641Z,246.99
2023-05-10T06:44:45.712Z,248.26
2023-05-10T06:45:44.803Z,247.81
2023-05-10T06:46:44.908Z,248.73
2023-05-10T06:47:45.945Z,248.56
2023-05-10T06:48:45.961Z,248.81
2023-05-10T06:49:45.045Z,247.96
2023-05-10T06:50:46.110Z,249.76
2023-05-10T06:51:46.401Z,250.00
2023-05-10T06:52:45.167Z,250.00
2023-05-10T06:53:46.210Z,249.39
2023-05-10T06:54:46.319Z,247.71
2023-05-10T06:55:46.327Z,248.94
2023-05-10T06:56:45.902Z,250.00
2023-05-10T06:57:46.484Z,248.16
2023-05-10T06:58:46.559Z,250.00
2023-05-10T06:59:46.568Z,249.55
2023-05-10T07:00:45.729Z,246.43
2023-05-10T07:01:46.694Z,245.62
2023-05-10T07:02:46.063Z,244.42
2023-05-10T07:03:45.750Z,244.70
2023-05-10T07:04:46.812Z,244.59
2023-05-10T07:05:45.863Z,240.71
2023-05-10T07:06:46.928Z,240.23
2023-05-10T07:07:46.931Z,241.10
2023-05-10T07:08:47.017Z,240.07
2023-05-10T07:09:47.029Z,239.28
2023-05-10T07:10:47.078Z,238.52
2023-05-10T07:11:46.104Z,239.72
2023-05-10T07:12:46.218Z,238.71
2023-05-10T07:13:46.776Z,237.17
2023-05-10T07:14:46.097Z,236.09
2023-05-10T07:15:47.106Z,235.97
2023-05-10T07:16:47.098Z,236.56
2023-05-10T07:17:47.122Z,232.61
2023-05-10T07:18:46.061Z,234.50
2023-05-10T07:19:46.065Z,233.62
2023-05-10T07:20:46.104Z,232.78
2023-05-10T07:21:46.068Z,232.68
2023-05-10T07:22:46.093Z,231.53
2023-05-10T07:23:47.058Z,230.26
2023-05-10T07:24:47.080Z,232.58
2023-05-10T07:25:47.094Z,228.88
2023-05-10T07:26:46.105Z,232.56
2023-05-10T07:27:46.133Z,232.15
2023-05-10T07:28:46.171Z,228.73
2023-05-10T07:29:47.215Z,228.95
2023-05-10T07:30:47.359Z,229.37
2023-05-10T07:31:47.315Z,228.21
2023-05-10T07:32:47.342Z,230.04
2023-05-10T07:33:46.347Z,227.51
2023-05-10T07:34:47.392Z,231.46
2023-05-10T07:35:47.414Z,229.43
2023-05-10T07:36:46.491Z,225.64
2023-05-10T07:37:47.528Z,226.13
2023-05-10T07:38:46.592Z,226.46
2023-05-10T07:39:47.550Z,226.96
2023-05-10T07:40:46.609Z,225.79
2023-05-10T07:41:46.655Z,225.91
2023-05-10T07:42:47.698Z,227.16
2023-05-10T07:43:47.783Z,226.66
2023-05-10T07:44:46.798Z,227.86
2023-05-10T07:45:47.940Z,224.66
2023-05-10T07:46:46.914Z,224.40
2023-05-10T07:47:47.933Z,224.27
2023-05-10T07:48:48.024Z,223.03
2023-05-10T07:49:48.007Z,223.40
2023-05-10T07:50:47.031Z,221.52
2023-05-10T07:51:48.421Z,226.10
2023-05-10T07:52:48.119Z,222.30
2023-05-10T07:53:47.154Z,222.76
2023-05-10T07:54:47.246Z,224.40
2023-05-10T07:55:47.227Z,223.68
2023-05-10T07:56:48.387Z,226.05
2023-05-10T07:57:47.327Z,221.37
2023-05-10T07:58:48.370Z,224.84
2023-05-10T07:59:48.380Z,222.71
2023-05-10T08:00:47.464Z,220.65
2023-05-10T08:01:48.488Z,222.41
2023-05-10T08:02:47.590Z,222.86
2023-05-10T08:03:48.686Z,219.11
2023-05-10T08:04:47.616Z,220.18
2023-05-10T08:05:48.667Z,223.21
2023-05-10T08:06:47.730Z,216.46
2023-05-10T08:07:48.781Z,217.26
2023-05-10T08:08:47.822Z,217.69
2023-05-10T08:09:48.869Z,218.84
2023-05-10T08:10:48.964Z,216.35
2023-05-10T08:11:49.006Z,216.43
2023-05-10T08:12:49.097Z,217.51
2023-05-10T08:13:49.129Z,216.78
2023-05-10T08:14:48.171Z,219.68
2023-05-10T08:15:49.281Z,218.66
2023-05-10T08:16:49.312Z,220.71
2023-05-10T08:17:48.446Z,218.31
2023-05-10T08:18:49.472Z,217.29
2023-05-10T08:19:49.513Z,215.86
2023-05-10T08:20:48.559Z,218.91
2023-05-10T08:21:49.641Z,217.43
2023-05-10T08:22:51.690Z,217.61
2023-05-10T08:23:48.669Z,219.94
2023-05-10T08:24:48.675Z,216.37
2023-05-10T08:25:49.670Z,214.12
2023-05-10T08:26:49.709Z,217.96
2023-05-10T08:27:49.901Z,215.34
2023-05-10T08:28:48.644Z,216.30
2023-05-10T08:29:50.385Z,216.92
2023-05-10T08:30:49.614Z,217.53
2023-05-10T08:31:49.766Z,215.98
2023-05-10T08:32:49.657Z,213.76
2023-05-10T08:33:49.612Z,218.16
2023-05-10T08:34:48.616Z,213.96
2023-05-10T08:35:48.594Z,214.65
2023-05-10T08:36:49.590Z,215.31
2023-05-10T08:37:49.581Z,212.26
2023-05-10T08:38:50.284Z,215.22
2023-05-10T08:39:49.679Z,214.59
2023-05-10T08:40:49.729Z,216.20
2023-05-10T08:41:49.791Z,213.88
2023-05-10T08:42:49.995Z,209.26
2023-05-10T08:43:48.922Z,215.02
2023-05-10T08:44:49.992Z,215.03
2023-05-10T08:45:50.042Z,184.54
2023-05-10T08:46:49.048Z,151.00
2023-05-10T08:47:50.118Z,121.72
2023-05-10T08:48:50.100Z,105.13
2023-05-10T08:49:50.117Z,91.10
2023-05-10T08:50:49.100Z,80.63
2023-05-10T08:51:50.173Z,75.69
2023-05-10T08:52:49.160Z,66.51
2023-05-10T08:53:50.217Z,61.28
2023-05-10T08:54:50.269Z,54.23
2023-05-10T08:55:50.311Z,50.19
2023-05-10T08:56:49.918Z,42.07
2023-05-10T08:57:50.914Z,32.68
2023-05-10T08:58:50.509Z,30.98
2023-05-10T08:59:49.516Z,25.00
2023-05-10T09:00:50.540Z,27.21
2023-05-10T09:01:50.521Z,25.00
2023-05-10T09:02:50.625Z,26.16
2023-05-10T09:03:49.596Z,24.87
2023-05-10T09:04:50.660Z,26.20
2023-05-10T09:05:49.607Z,27.09
2023-05-10T09:06:49.622Z,29.98
2023-05-10T09:07:49.671Z,28.82
2023-05-10T09:08:50.706Z,31.50
2023-05-10T09:09:49.746Z,30.88
2023-05-10T09:10:49.794Z,31.34
2023-05-10T09:11:49.815Z,30.12
2023-05-10T09:12:50.870Z,25.49
2023-05-10T09:13:50.905Z,32.67
2023-05-10T09:14:50.954Z,36.60
2023-05-10T09:15:51.003Z,41.30
2023-05-10T09:16:51.102Z,46.95
2023-05-10T09:17:50.104Z,57.66
2023-05-10T09:18:51.202Z,60.03
2023-05-10T09:19:51.139Z,69.77
2023-05-10T09:20:50.170Z,70.53
2023-05-10T09:21:51.207Z,73.95
2023-05-10T09:22:51.193Z,75.65
2023-05-10T09:23:50.189Z,73.24
2023-05-10T09:24:51.197Z,74.48
2023-05-10T09:25:51.200Z,78.40
2023-05-10T09:26:51.198Z,79.99
2023-05-10T09:27:51.195Z,77.87
2023-05-10T09:28:51.206Z,80.81
2023-05-10T09:29:50.217Z,85.08
2023-05-10T09:30:50.271Z,87.64
2023-05-10T09:31:51.295Z,87.43
2023-05-10T09:32:51.463Z,90.12
2023-05-10T09:33:50.413Z,90.30
2023-05-10T09:34:51.488Z,92.58
2023-05-10T09:35:51.525Z,93.03
2023-05-10T09:36:51.655Z,91.79
2023-05-10T09:37:51.640Z,93.48
2023-05-10T09:38:51.709Z,93.84
2023-05-10T09:39:50.758Z,94.39
2023-05-10T09:40:51.794Z,86.29
2023-05-10T09:41:51.850Z,74.68
2023-05-10T09:42:51.929Z,67.31
2023-05-10T09:43:51.920Z,56.60
2023-05-10T09:44:51.887Z,50.86
2023-05-10T09:45:50.958Z,51.35
2023-05-10T09:46:51.998Z,54.89
2023-05-10T09:47:52.490Z,54.07
2023-05-10T09:48:50.901Z,54.30
2023-05-10T09:49:50.945Z,46.08
2023-05-10T09:50:52.002Z,47.81
2023-05-10T09:51:52.051Z,49.71
2023-05-10T09:52:52.589Z,51.07
2023-05-10T09:53:51.121Z,60.64
2023-05-10T09:54:51.110Z,69.02
2023-05-10T09:55:52.121Z,76.38
2023-05-10T09:56:51.115Z,86.15
2023-05-10T09:57:52.478Z,90.89
2023-05-10T09:58:52.233Z,89.53
2023-05-10T09:59:52.269Z,93.86
2023-05-10T10:00:51.303Z,101.25
2023-05-10T10:01:51.392Z,101.88
2023-05-10T10:02:52.477Z,96.51
2023-05-10T10:03:52.359Z,104.01
2023-05-10T10:04:51.439Z,102.39
2023-05-10T10:05:52.421Z,104.69
2023-05-10T10:06:52.386Z,108.38
2023-05-10T10:07:52.400Z,110.68
2023-05-10T10:08:51.376Z,109.35
2023-05-10T10:09:52.436Z,107.65
2023-05-10T10:10:52.388Z,112.22
2023-05-10T10:11:51.381Z,109.54
2023-05-10T10:12:52.390Z,115.33
2023-05-10T10:13:52.437Z,102.40
2023-05-10T10:14:52.382Z,100.23
2023-05-10T10:15:52.502Z,96.28
2023-05-10T10:17:05.674Z,103.26
2023-05-10T10:17:52.506Z,101.20
2023-05-10T10:18:52.458Z,104.43
2023-05-10T10:19:51.385Z,103.44
2023-05-10T10:20:52.370Z,102.34
2023-05-10T10:21:51.407Z,104.94
2023-05-10T10:22:52.401Z,94.59
2023-05-10T10:23:52.347Z,91.94
2023-05-10T10:24:51.338Z,81.90
2023-05-10T10:25:51.322Z,84.15
2023-05-10T10:26:51.348Z,88.60
2023-05-10T10:27:51.385Z,95.86
2023-05-10T10:28:52.328Z,102.61
2023-05-10T10:29:51.307Z,100.28
2023-05-10T10:30:51.287Z,94.76
2023-05-10T10:31:51.412Z,97.44
2023-05-10T10:32:52.488Z,88.78
2023-05-10T10:33:52.455Z,91.53
2023-05-10T10:34:52.369Z,85.82
2023-05-10T10:35:52.386Z,94.34
2023-05-10T10:36:52.420Z,70.72
2023-05-10T10:37:52.525Z,82.88
2023-05-10T10:38:51.534Z,78.47
2023-05-10T10:39:52.607Z,90.60
2023-05-10T10:40:52.672Z,84.99
2023-05-10T10:41:52.670Z,80.76
2023-05-10T10:42:52.675Z,79.60
2023-05-10T10:43:52.951Z,69.67
2023-05-10T10:44:51.659Z,55.47
2023-05-10T10:45:52.764Z,59.55
2023-05-10T10:46:52.779Z,51.12
2023-05-10T10:47:51.768Z,67.84
2023-05-10T10:48:51.748Z,77.99
2023-05-10T10:49:52.947Z,82.95
2023-05-10T10:50:52.778Z,98.54
2023-05-10T10:51:51.780Z,102.95
2023-05-10T10:52:51.842Z,108.51
2023-05-10T10:53:51.930Z,102.67
2023-05-10T10:54:52.979Z,105.93
2023-05-10T10:55:52.987Z,110.19
2023-05-10T10:56:53.008Z,114.28
2023-05-10T10:57:53.074Z,114.80
2023-05-10T10:58:53.056Z,114.83
2023-05-10T10:59:52.100Z,122.78
2023-05-10T11:00:52.190Z,120.10
2023-05-10T11:01:52.143Z,119.22
2023-05-10T11:02:52.165Z,116.36
2023-05-10T11:03:53.246Z,118.46
2023-05-10T11:04:53.166Z,129.72
2023-05-10T11:05:52.937Z,128.46
2023-05-10T11:06:52.207Z,124.17
2023-05-10T11:07:53.184Z,126.17
2023-05-10T11:08:53.213Z,131.63
2023-05-10T11:09:52.244Z,133.53
2023-05-10T11:10:53.373Z,134.43
2023-05-10T11:11:52.294Z,137.07
2023-05-10T11:12:53.393Z,135.68
2023-05-10T11:13:53.386Z,138.05
2023-05-10T11:14:52.487Z,140.37
2023-05-10T11:15:52.530Z,136.18
2023-05-10T11:16:53.651Z,141.75
2023-05-10T11:17:53.601Z,140.95
2023-05-10T11:18:53.717Z,143.43
2023-05-10T11:19:53.641Z,141.39
2023-05-10T11:20:53.694Z,144.29
2023-05-10T11:21:53.723Z,146.60
2023-05-10T11:22:53.807Z,145.51
2023-05-10T11:23:52.839Z,141.63
2023-05-10T11:24:52.857Z,148.56
2023-05-10T11:25:52.862Z,146.41
2023-05-10T11:26:53.927Z,147.99
2023-05-10T11:27:52.916Z,143.19
2023-05-10T11:28:53.925Z,141.78
2023-05-10T11:29:53.946Z,144.34
2023-05-10T11:30:52.976Z,138.62
2023-05-10T11:31:53.990Z,139.83
2023-05-10T11:32:54.076Z,139.72
2023-05-10T11:33:53.033Z,131.53
2023-05-10T11:34:53.029Z,140.28
2023-05-10T11:35:54.043Z,140.41
2023-05-10T11:36:54.062Z,138.84
2023-05-10T11:37:54.122Z,132.45
2023-05-10T11:38:54.182Z,137.20
2023-05-10T11:39:54.149Z,143.14
2023-05-10T11:40:53.119Z,143.79
2023-05-10T11:41:54.194Z,150.22
2023-05-10T11:42:54.132Z,154.09
2023-05-10T11:43:53.158Z,145.28
2023-05-10T11:44:53.149Z,142.12
2023-05-10T11:45:54.230Z,140.43
2023-05-10T11:46:54.207Z,142.54
2023-05-10T11:47:54.238Z,140.22
2023-05-10T11:48:53.326Z,140.53
2023-05-10T11:49:53.257Z,139.79
2023-05-10T11:50:53.269Z,134.15
2023-05-10T11:51:54.312Z,131.33
2023-05-10T11:52:54.383Z,129.17
2023-05-10T11:53:54.412Z,108.44
2023-05-10T11:54:54.795Z,120.13
2023-05-10T11:55:54.466Z,121.77
2023-05-10T11:56:54.532Z,108.12
2023-05-10T11:57:53.587Z,114.41
2023-05-10T11:58:53.653Z,122.89
2023-05-10T11:59:54.778Z,126.43
2023-05-10T12:00:53.727Z,125.60
2023-05-10T12:01:53.787Z,127.42
2023-05-10T12:02:54.986Z,128.26
2023-05-10T12:03:55.073Z,128.53
2023-05-10T12:04:54.915Z,131.40
2023-05-10T12:05:54.919Z,124.14
2023-05-10T12:06:54.995Z,117.85
2023-05-10T12:07:54.054Z,121.65
2023-05-10T12:08:54.067Z,125.91
2023-05-10T12:09:54.119Z,123.04
2023-05-10T12:10:54.188Z,129.64
2023-05-10T12:11:54.205Z,123.22
2023-05-10T12:12:55.266Z,114.77
2023-05-10T12:13:54.315Z,96.21
2023-05-10T12:14:54.366Z,89.57
2023-05-10T12:15:55.389Z,85.76
2023-05-10T12:16:55.464Z,75.07
2023-05-10T12:17:54.487Z,80.43
2023-05-10T12:18:55.420Z,71.72
2023-05-10T12:19:54.398Z,68.18
2023-05-10T12:20:54.398Z,66.68
2023-05-10T12:21:54.430Z,67.25
2023-05-10T12:22:55.430Z,76.45
2023-05-10T12:23:54.444Z,73.54
2023-05-10T12:24:54.449Z,69.07
2023-05-10T12:25:54.445Z,59.81
2023-05-10T12:26:55.477Z,56.46
2023-05-10T12:27:55.457Z,47.74
2023-05-10T12:28:55.497Z,48.35
2023-05-10T12:29:54.501Z,39.13
2023-05-10T12:30:54.505Z,33.42
2023-05-10T12:31:55.609Z,25.44
2023-05-10T12:32:54.603Z,25.00